createdAt,value
2023-09-12T00:01:22.357Z,75.35
2023-09-12T00:03:48.841Z,81.20
2023-09-12T00:06:15.337Z,72.95
2023-09-12T00:08:41.989Z,64.72
2023-09-12T00:11:10.688Z,66.03
2023-09-12T00:13:37.084Z,70.90
2023-09-12T00:16:03.582Z,72.43
2023-09-12T00:18:29.996Z,69.32
2023-09-12T00:20:56.434Z,74.18
2023-09-12T00:23:23.556Z,65.15
2023-09-12T00:25:53.048Z,68.05
2023-09-12T00:28:20.391Z,68.43
2023-09-12T00:30:46.758Z,72.13
2023-09-12T00:33:13.447Z,71.50
2023-09-12T00:35:39.907Z,69.95
2023-09-12T00:38:06.348Z,69.43
2023-09-12T00:40:32.704Z,68.80
2023-09-12T00:42:59.923Z,71.85
2023-09-12T00:45:26.695Z,70.57
2023-09-12T00:47:54.332Z,69.05
2023-09-12T00:50:24.233Z,65.07
2023-09-12T00:52:50.654Z,68.57
2023-09-12T00:55:17.644Z,72.85
2023-09-12T00:57:44.559Z,77.65
2023-09-12T01:00:13.547Z,76.88
2023-09-12T01:02:42.025Z,70.35
2023-09-12T01:05:09.780Z,70.63
2023-09-12T01:07:40.054Z,67.65
2023-09-12T01:10:07.825Z,71.47
2023-09-12T01:12:34.508Z,75.72
2023-09-12T01:15:01.131Z,71.82
2023-09-12T01:17:28.628Z,72.90
2023-09-12T01:19:55.164Z,72.88
2023-09-12T01:22:53.798Z,71.05
2023-09-12T01:25:38.669Z,71.00
2023-09-12T01:28:08.762Z,73.93
2023-09-12T01:30:36.501Z,78.75
2023-09-12T01:33:03.814Z,70.53
2023-09-12T01:35:30.268Z,75.13
2023-09-12T01:37:56.772Z,67.70
2023-09-12T01:40:34.403Z,67.35
2023-09-12T01:43:01.644Z,69.22
2023-09-12T01:45:28.463Z,74.30
2023-09-12T01:47:55.526Z,72.38
2023-09-12T01:50:23.076Z,76.68
2023-09-12T01:52:50.110Z,73.38
2023-09-12T01:55:17.073Z,75.95
2023-09-12T01:57:43.724Z,78.70
2023-09-12T02:00:10.847Z,81.22
2023-09-12T02:02:37.231Z,76.37
2023-09-12T02:05:21.517Z,72.60
2023-09-12T02:07:48.397Z,76.20
2023-09-12T02:10:15.377Z,76.95
2023-09-12T02:12:42.242Z,81.47
2023-09-12T02:15:09.457Z,74.20
2023-09-12T02:17:36.018Z,73.00
2023-09-12T02:20:02.483Z,76.63
2023-09-12T02:22:28.913Z,73.80
2023-09-12T02:24:55.306Z,73.13
2023-09-12T02:27:21.779Z,70.93
2023-09-12T02:29:48.188Z,70.47
2023-09-12T02:32:14.645Z,75.18
2023-09-12T02:34:41.025Z,79.63
2023-09-12T02:37:07.470Z,81.97
2023-09-12T02:39:33.896Z,79.80
2023-09-12T02:42:00.295Z,69.57
2023-09-12T02:44:26.694Z,102.60
2023-09-12T02:46:53.091Z,72.75
2023-09-12T02:49:19.540Z,175.95
2023-09-12T02:51:47.020Z,148.95
2023-09-12T02:54:13.561Z,308.98
2023-09-12T02:56:39.967Z,131.00
2023-09-12T02:59:06.379Z,286.88
2023-09-12T03:01:32.814Z,151.70
2023-09-12T03:03:59.441Z,164.15
2023-09-12T03:06:25.914Z,123.78
2023-09-12T03:08:52.261Z,332.80
2023-09-12T03:11:18.677Z,101.30
2023-09-12T03:13:45.117Z,163.90
2023-09-12T03:16:12.638Z,298.45
2023-09-12T03:18:39.146Z,128.65
2023-09-12T03:21:06.297Z,116.97
2023-09-12T03:23:33.086Z,86.72
2023-09-12T03:26:04.103Z,141.20
2023-09-12T03:28:30.793Z,120.95
2023-09-12T03:31:17.589Z,161.18
2023-09-12T03:33:44.652Z,89.00
2023-09-12T03:36:11.051Z,99.50
2023-09-12T03:38:37.565Z,204.75
2023-09-12T03:41:03.969Z,211.70
2023-09-12T03:43:31.128Z,78.35
2023-09-12T03:45:57.660Z,170.93
2023-09-12T03:48:24.192Z,112.80
2023-09-12T03:50:50.618Z,114.20
2023-09-12T03:53:17.016Z,92.82
2023-09-12T03:55:43.689Z,75.10
2023-09-12T03:58:10.133Z,93.68
2023-09-12T04:00:36.647Z,63.67
2023-09-12T04:03:03.380Z,70.07
2023-09-12T04:05:29.867Z,67.55
2023-09-12T04:07:56.251Z,158.93
2023-09-12T04:10:22.596Z,61.50
2023-09-12T04:12:49.157Z,58.15
2023-09-12T04:15:15.819Z,123.18
2023-09-12T04:17:42.259Z,71.55
2023-09-12T04:20:08.785Z,60.28
2023-09-12T04:22:35.192Z,78.18
2023-09-12T04:25:01.634Z,44.45
2023-09-12T04:27:28.034Z,69.45
2023-09-12T04:29:54.389Z,52.00
2023-09-12T04:32:20.736Z,55.45
2023-09-12T04:34:47.085Z,124.50
2023-09-12T04:37:13.509Z,123.18
2023-09-12T04:39:39.965Z,96.82
2023-09-12T04:42:06.465Z,121.00
2023-09-12T04:44:36.941Z,80.88
2023-09-12T04:47:03.417Z,90.38
2023-09-12T04:49:29.948Z,58.72
2023-09-12T04:51:56.361Z,65.20
2023-09-12T04:54:22.731Z,66.72
2023-09-12T04:56:49.108Z,53.28
2023-09-12T04:59:15.524Z,85.10
2023-09-12T05:01:44.692Z,45.40
2023-09-12T05:04:11.158Z,47.28
2023-09-12T05:06:37.628Z,44.20
2023-09-12T05:09:04.157Z,48.63
2023-09-12T05:11:30.496Z,49.10
2023-09-12T05:13:56.851Z,51.95
2023-09-12T05:16:23.253Z,50.38
2023-09-12T05:18:49.730Z,45.38
2023-09-12T05:21:16.688Z,50.63
2023-09-12T05:23:43.187Z,45.42
2023-09-12T05:26:09.546Z,46.85
2023-09-12T05:28:35.920Z,46.55
2023-09-12T05:31:02.457Z,51.03
2023-09-12T05:33:30.693Z,50.05
2023-09-12T05:35:59.119Z,50.30
2023-09-12T05:38:25.460Z,49.45
2023-09-12T05:40:51.839Z,47.95
2023-09-12T05:43:18.281Z,46.10
2023-09-12T05:45:44.982Z,47.92
2023-09-12T05:48:14.291Z,45.15
2023-09-12T05:50:40.767Z,47.20
2023-09-12T05:53:07.129Z,47.85
2023-09-12T05:55:33.539Z,46.38
2023-09-12T05:57:59.937Z,44.95
2023-09-12T06:00:26.353Z,40.00
2023-09-12T06:02:52.918Z,41.22
2023-09-12T06:05:19.387Z,40.30
2023-09-12T06:07:46.666Z,40.97
2023-09-12T06:10:13.070Z,43.67
2023-09-12T06:12:39.501Z,44.72
2023-09-12T06:15:06.581Z,46.10
2023-09-12T06:17:33.124Z,45.92
2023-09-12T06:19:59.556Z,46.10
2023-09-12T06:22:26.002Z,44.63
2023-09-12T06:24:52.761Z,41.17
2023-09-12T06:27:19.321Z,46.95
2023-09-12T06:29:46.751Z,46.67
2023-09-12T06:32:13.122Z,48.15
2023-09-12T06:34:39.577Z,45.03
2023-09-12T06:37:05.945Z,45.60
2023-09-12T06:39:32.533Z,49.65
2023-09-12T06:41:59.222Z,46.40
2023-09-12T06:44:25.640Z,48.58
2023-09-12T06:46:52.153Z,42.83
2023-09-12T06:49:18.633Z,39.13
2023-09-12T06:51:45.088Z,36.75
2023-09-12T06:54:11.594Z,37.55
2023-09-12T06:56:38.004Z,39.40
2023-09-12T06:59:08.037Z,34.95
2023-09-12T07:01:34.655Z,36.00
2023-09-12T07:04:01.205Z,34.55
2023-09-12T07:06:27.866Z,34.80
2023-09-12T07:08:54.434Z,35.50
2023-09-12T07:11:20.812Z,32.83
2023-09-12T07:13:47.597Z,34.42
2023-09-12T07:16:14.270Z,33.83
2023-09-12T07:18:40.897Z,32.58
2023-09-12T07:21:08.825Z,41.22
2023-09-12T07:23:35.265Z,38.00
2023-09-12T07:26:01.697Z,34.72
2023-09-12T07:28:28.750Z,35.40
2023-09-12T07:30:56.040Z,35.55
2023-09-12T07:33:23.106Z,32.42
2023-09-12T07:35:52.749Z,34.38
2023-09-12T07:38:19.644Z,33.35
2023-09-12T07:40:46.092Z,32.05
2023-09-12T07:43:12.459Z,33.42
2023-09-12T07:45:39.152Z,34.08
2023-09-12T07:48:10.681Z,34.47
2023-09-12T07:50:37.203Z,38.28
2023-09-12T07:53:03.809Z,34.70
2023-09-12T07:55:30.255Z,35.70
2023-09-12T07:57:56.776Z,33.00
2023-09-12T08:00:23.208Z,31.55
2023-09-12T08:02:49.633Z,36.13
2023-09-12T08:05:16.127Z,35.25
2023-09-12T08:07:42.521Z,31.10
2023-09-12T08:10:09.053Z,33.97
2023-09-12T08:12:35.421Z,33.70
2023-09-12T08:15:01.913Z,35.38
2023-09-12T08:17:28.356Z,31.25
2023-09-12T08:19:54.772Z,32.92
2023-09-12T08:22:21.134Z,31.90
2023-09-12T08:24:47.527Z,33.13
2023-09-12T08:27:13.982Z,30.35
2023-09-12T08:29:40.392Z,29.65
2023-09-12T08:32:06.976Z,30.38
2023-09-12T08:34:33.449Z,29.50
2023-09-12T08:36:59.846Z,31.63
2023-09-12T08:39:28.706Z,25.55
2023-09-12T08:41:55.360Z,25.83
2023-09-12T08:44:22.531Z,25.10
2023-09-12T08:46:49.005Z,25.03
2023-09-12T08:49:16.348Z,24.35
2023-09-12T08:51:43.006Z,24.38
2023-09-12T08:54:09.404Z,22.80
2023-09-12T08:56:40.257Z,24.13
2023-09-12T08:59:06.746Z,25.35
2023-09-12T09:01:35.006Z,27.67
2023-09-12T09:04:03.682Z,24.27
2023-09-12T09:06:32.184Z,23.55
2023-09-12T09:09:00.755Z,29.48
2023-09-12T09:11:27.121Z,25.80
2023-09-12T09:13:53.505Z,27.00
2023-09-12T09:16:20.623Z,28.70
2023-09-12T09:18:53.794Z,23.67
2023-09-12T09:21:21.887Z,27.25
2023-09-12T09:23:48.282Z,24.75
2023-09-12T09:26:14.775Z,25.55
2023-09-12T09:28:41.210Z,23.17
2023-09-12T09:31:14.653Z,22.85
2023-09-12T09:33:41.842Z,25.83
2023-09-12T09:36:09.075Z,23.90
2023-09-12T09:38:36.295Z,26.83
2023-09-12T09:41:07.201Z,26.95
2023-09-12T09:43:33.902Z,27.67
2023-09-12T09:46:00.471Z,27.42
2023-09-12T09:48:27.817Z,25.77
2023-09-12T09:51:00.708Z,28.23
2023-09-12T09:53:31.485Z,25.23
2023-09-12T09:56:15.545Z,28.02
2023-09-12T09:59:07.910Z,27.25
2023-09-12T10:01:36.530Z,26.08
2023-09-12T10:04:04.444Z,28.02
2023-09-12T10:06:33.798Z,26.13
2023-09-12T10:09:01.517Z,31.08
2023-09-12T10:11:32.673Z,23.42
2023-09-12T10:14:03.538Z,23.67
2023-09-12T10:16:39.865Z,26.50
2023-09-12T10:19:17.885Z,26.67
2023-09-12T10:22:02.008Z,24.63
2023-09-12T10:24:29.444Z,26.27
2023-09-12T10:26:57.846Z,24.77
2023-09-12T10:29:24.243Z,21.98
2023-09-12T10:31:50.927Z,21.08
2023-09-12T10:34:19.137Z,23.33
2023-09-12T10:36:47.038Z,22.50
2023-09-12T10:39:15.770Z,23.60
2023-09-12T10:41:54.608Z,23.73
2023-09-12T10:44:21.524Z,22.92
2023-09-12T10:46:48.729Z,21.92
2023-09-12T10:49:16.428Z,21.88
2023-09-12T10:51:44.653Z,20.20
2023-09-12T10:54:16.375Z,19.65
2023-09-12T10:56:43.268Z,20.23
2023-09-12T10:59:10.379Z,16.10
2023-09-12T11:01:38.979Z,19.27
2023-09-12T11:04:20.775Z,18.98
2023-09-12T11:06:51.075Z,21.20
2023-09-12T11:09:25.317Z,26.23
2023-09-12T11:11:54.482Z,20.60
2023-09-12T11:14:21.089Z,22.67
2023-09-12T11:17:23.526Z,20.17
2023-09-12T11:19:53.575Z,25.27
2023-09-12T11:22:24.739Z,20.85
2023-09-12T11:24:51.367Z,17.85
2023-09-12T11:27:18.015Z,18.48
2023-09-12T11:29:44.601Z,23.48
2023-09-12T11:32:11.103Z,18.87
2023-09-12T11:34:39.450Z,20.43
2023-09-12T11:37:05.956Z,20.60
2023-09-12T11:39:34.247Z,20.15
2023-09-12T11:42:02.829Z,20.30
2023-09-12T11:44:29.691Z,20.98
2023-09-12T11:46:56.227Z,21.05
2023-09-12T11:49:22.721Z,19.77
2023-09-12T11:51:54.449Z,19.38
2023-09-12T11:54:26.746Z,17.45
2023-09-12T11:56:54.378Z,16.58
2023-09-12T11:59:20.840Z,16.30
2023-09-12T12:01:47.399Z,16.88
2023-09-12T12:04:14.321Z,15.68
2023-09-12T12:06:41.635Z,9.70
2023-09-12T12:09:08.113Z,20.65
2023-09-12T12:11:34.522Z,11.57
2023-09-12T12:14:14.092Z,13.20
2023-09-12T12:16:40.616Z,16.42
2023-09-12T12:19:07.167Z,15.07
2023-09-12T12:21:34.716Z,11.40
2023-09-12T12:24:03.183Z,12.35
2023-09-12T12:28:57.253Z,10.38
2023-09-12T12:31:26.927Z,9.53
2023-09-12T12:34:54.983Z,11.20
2023-09-12T12:36:54.682Z,13.85
2023-09-12T12:39:23.773Z,12.55
2023-09-12T12:41:53.391Z,13.43
2023-09-12T12:44:20.287Z,10.82
2023-09-12T12:46:54.193Z,8.48
2023-09-12T12:49:21.594Z,11.45
2023-09-12T12:54:15.744Z,8.63
2023-09-12T12:56:44.644Z,9.85
2023-09-12T12:59:11.476Z,7.18
2023-09-12T13:01:39.102Z,13.40
2023-09-12T13:04:09.332Z,9.85
2023-09-12T13:06:36.587Z,7.70
2023-09-12T13:09:05.733Z,9.45
2023-09-12T13:11:33.275Z,7.47
2023-09-12T13:13:59.729Z,9.90
2023-09-12T13:16:26.213Z,12.68
2023-09-12T13:18:52.753Z,8.60
2023-09-12T13:21:19.109Z,9.05
2023-09-12T13:23:45.707Z,12.13
2023-09-12T13:26:12.421Z,9.98
2023-09-12T13:28:38.849Z,10.30
2023-09-12T13:31:05.273Z,11.13
2023-09-12T13:33:31.761Z,12.30
2023-09-12T13:35:58.221Z,12.35
2023-09-12T13:38:24.657Z,10.63
2023-09-12T13:40:51.098Z,13.35
2023-09-12T13:43:17.572Z,10.93
2023-09-12T13:45:44.110Z,11.60
2023-09-12T13:48:10.499Z,9.30
2023-09-12T13:50:37.109Z,11.35
2023-09-12T13:53:04.169Z,11.87
2023-09-12T13:55:54.120Z,11.70
2023-09-12T13:58:17.307Z,12.90
2023-09-12T14:00:43.787Z,15.95
2023-09-12T14:03:10.358Z,15.68
2023-09-12T14:05:37.257Z,15.80
2023-09-12T14:08:07.578Z,14.30
2023-09-12T14:10:37.882Z,12.77
2023-09-12T14:13:16.628Z,12.20
2023-09-12T14:15:46.794Z,12.02
2023-09-12T14:18:13.942Z,15.00
2023-09-12T14:20:40.585Z,14.63
2023-09-12T14:23:07.168Z,16.55
2023-09-12T14:25:33.751Z,17.73
2023-09-12T14:28:00.275Z,15.48
2023-09-12T14:30:26.796Z,12.98
2023-09-12T14:32:53.273Z,11.98
2023-09-12T14:35:19.689Z,12.65
2023-09-12T14:37:46.093Z,12.68
2023-09-12T14:40:13.568Z,9.00
2023-09-12T14:42:39.959Z,7.30
2023-09-12T14:45:07.477Z,9.38
2023-09-12T14:50:00.922Z,10.53
2023-09-12T14:52:30.012Z,10.55
2023-09-12T14:54:57.383Z,8.00
2023-09-12T14:57:23.925Z,7.68
2023-09-12T14:59:51.701Z,6.82
2023-09-12T15:02:18.548Z,6.22
2023-09-12T15:04:45.058Z,3.55
2023-09-12T15:07:11.519Z,7.00
2023-09-12T15:09:37.949Z,6.72
2023-09-12T15:12:04.633Z,6.45
2023-09-12T15:14:30.969Z,11.18
2023-09-12T15:16:57.423Z,4.22
2023-09-12T15:19:23.860Z,4.93
2023-09-12T15:21:50.329Z,4.88
2023-09-12T15:24:16.710Z,8.98
2023-09-12T15:26:43.182Z,6.70
2023-09-12T15:29:09.576Z,7.93
2023-09-12T15:31:35.987Z,4.53
2023-09-12T15:34:02.484Z,7.80
2023-09-12T15:36:29.212Z,5.63
2023-09-12T15:38:55.667Z,4.10
2023-09-12T15:41:25.220Z,7.20
2023-09-12T15:44:05.107Z,4.88
2023-09-12T15:46:38.024Z,5.45
2023-09-12T15:49:04.914Z,6.35
2023-09-12T15:51:31.828Z,4.05
2023-09-12T15:53:58.198Z,6.18
2023-09-12T15:56:24.565Z,4.75
2023-09-12T15:58:50.942Z,8.57
2023-09-12T16:01:17.381Z,5.30
2023-09-12T16:03:44.120Z,6.03
2023-09-12T16:06:10.827Z,5.82
2023-09-12T16:08:37.195Z,4.32
2023-09-12T16:11:03.675Z,8.57
2023-09-12T16:13:30.079Z,7.00
2023-09-12T16:15:56.519Z,5.88
2023-09-12T16:18:22.922Z,8.32
2023-09-12T16:20:49.276Z,4.85
2023-09-12T16:23:15.795Z,9.55
2023-09-12T16:25:42.246Z,9.00
2023-09-12T16:28:08.684Z,12.70
2023-09-12T16:30:35.149Z,9.65
2023-09-12T16:33:01.676Z,9.75
2023-09-12T16:35:28.065Z,13.65
2023-09-12T16:37:54.442Z,11.73
2023-09-12T16:40:20.809Z,12.68
2023-09-12T16:42:47.287Z,17.00
2023-09-12T16:45:13.826Z,13.35
2023-09-12T16:47:40.279Z,11.82
2023-09-12T16:50:07.156Z,12.32
2023-09-12T16:52:33.550Z,14.57
2023-09-12T16:55:00.043Z,16.75
2023-09-12T16:57:26.522Z,16.45
2023-09-12T16:59:52.910Z,16.23
2023-09-12T17:02:19.267Z,11.68
2023-09-12T17:04:45.682Z,13.82
2023-09-12T17:07:14.007Z,12.52
2023-09-12T17:09:41.330Z,11.00
2023-09-12T17:12:08.418Z,13.65
2023-09-12T17:14:34.961Z,9.82
2023-09-12T17:17:02.119Z,15.98
2023-09-12T17:19:28.864Z,10.45
2023-09-12T17:21:55.405Z,12.13
2023-09-12T17:24:21.843Z,12.07
2023-09-12T17:26:48.192Z,16.65
2023-09-12T17:29:14.607Z,15.00
2023-09-12T17:31:41.059Z,15.00
2023-09-12T17:34:07.474Z,13.75
2023-09-12T17:36:34.137Z,12.93
2023-09-12T17:39:00.666Z,10.95
2023-09-12T17:41:27.071Z,12.40
2023-09-12T17:43:53.419Z,15.52
2023-09-12T17:46:19.897Z,13.52
2023-09-12T17:48:46.329Z,14.07
2023-09-12T17:51:12.672Z,14.07
2023-09-12T17:53:39.069Z,16.10
2023-09-12T17:56:05.557Z,14.27
2023-09-12T17:58:31.961Z,14.02
2023-09-12T18:01:00.160Z,16.48
2023-09-12T18:03:30.010Z,12.93
2023-09-12T18:05:58.468Z,15.07
2023-09-12T18:08:25.095Z,17.77
2023-09-12T18:10:51.498Z,13.13
2023-09-12T18:13:17.812Z,13.93
2023-09-12T18:15:44.253Z,13.82
2023-09-12T18:18:10.727Z,16.25
2023-09-12T18:20:37.073Z,11.25
2023-09-12T18:23:03.582Z,12.68
2023-09-12T18:25:29.978Z,12.45
2023-09-12T18:27:56.479Z,12.80
2023-09-12T18:30:22.925Z,15.43
2023-09-12T18:32:49.558Z,12.35
2023-09-12T18:35:16.000Z,13.35
2023-09-12T18:37:42.341Z,13.95
2023-09-12T18:40:09.224Z,12.65
2023-09-12T18:42:35.766Z,14.75
2023-09-12T18:45:02.179Z,18.92
2023-09-12T18:47:28.693Z,14.07
2023-09-12T18:49:55.635Z,16.50
2023-09-12T18:52:22.024Z,13.85
2023-09-12T18:54:48.532Z,15.85
2023-09-12T18:57:15.000Z,16.10
2023-09-12T18:59:41.885Z,16.52
2023-09-12T19:02:08.398Z,14.90
2023-09-12T19:04:35.103Z,15.30
2023-09-12T19:07:01.742Z,13.10
2023-09-12T19:09:28.079Z,13.32
2023-09-12T19:11:56.503Z,15.90
2023-09-12T19:14:22.904Z,14.10
2023-09-12T19:16:54.105Z,14.63
2023-09-12T19:19:20.627Z,17.42
2023-09-12T19:21:48.114Z,18.52
2023-09-12T19:24:14.517Z,15.82
2023-09-12T19:26:41.879Z,13.20
2023-09-12T19:29:08.484Z,12.85
2023-09-12T19:31:34.851Z,16.42
2023-09-12T19:34:01.397Z,14.73
2023-09-12T19:36:27.798Z,14.52
2023-09-12T19:38:54.173Z,14.25
2023-09-12T19:41:20.574Z,14.38
2023-09-12T19:43:46.941Z,14.40
2023-09-12T19:46:13.440Z,12.90
2023-09-12T19:48:39.993Z,13.88
2023-09-12T19:51:06.397Z,17.05
2023-09-12T19:53:32.775Z,11.57
2023-09-12T19:55:59.400Z,14.45
2023-09-12T19:58:25.786Z,14.45
2023-09-12T20:00:52.192Z,15.13
2023-09-12T20:03:18.899Z,12.88
2023-09-12T20:05:46.336Z,14.02
2023-09-12T20:08:13.000Z,15.30
2023-09-12T20:10:39.359Z,13.63
2023-09-12T20:13:05.814Z,12.13
2023-09-12T20:15:35.784Z,10.32
2023-09-12T20:18:09.970Z,11.27
2023-09-12T20:20:37.272Z,10.98
2023-09-12T20:23:04.079Z,9.20
2023-09-12T20:25:31.573Z,11.90
2023-09-12T20:27:58.066Z,10.35
2023-09-12T20:30:24.534Z,12.05
2023-09-12T20:32:59.769Z,8.65
2023-09-12T20:35:28.576Z,11.38
2023-09-12T20:37:56.163Z,10.52
2023-09-12T20:40:22.589Z,10.90
2023-09-12T20:42:48.962Z,10.93
2023-09-12T20:45:15.331Z,10.55
2023-09-12T20:47:41.770Z,10.43
2023-09-12T20:50:08.478Z,7.88
2023-09-12T20:52:34.902Z,7.10
2023-09-12T20:55:01.413Z,9.23
2023-09-12T20:57:27.856Z,10.75
2023-09-12T20:59:55.210Z,9.30
2023-09-12T21:02:23.141Z,8.35
2023-09-12T21:04:49.544Z,9.20
2023-09-12T21:07:17.547Z,8.90
2023-09-12T21:09:44.243Z,9.60
2023-09-12T21:12:10.700Z,9.35
2023-09-12T21:14:37.102Z,8.20
2023-09-12T21:17:03.571Z,8.63
2023-09-12T21:19:30.089Z,9.40
2023-09-12T21:21:56.449Z,9.68
2023-09-12T21:24:22.934Z,7.20
2023-09-12T21:26:49.290Z,8.85
2023-09-12T21:29:17.994Z,7.25
2023-09-12T21:31:44.421Z,12.57
2023-09-12T21:34:10.862Z,9.80
2023-09-12T21:36:37.414Z,9.50
2023-09-12T21:39:03.957Z,6.63
2023-09-12T21:41:30.320Z,10.57
2023-09-12T21:43:56.653Z,9.63
2023-09-12T21:46:25.453Z,11.35
2023-09-12T21:48:51.912Z,9.25
2023-09-12T21:51:18.424Z,12.52
2023-09-12T21:53:44.984Z,7.78
2023-09-12T21:56:11.602Z,6.63
2023-09-12T21:58:38.054Z,9.18
2023-09-12T22:01:04.531Z,6.35
2023-09-12T22:03:33.424Z,7.82
2023-09-12T22:05:59.848Z,8.02
2023-09-12T22:08:26.225Z,7.72
2023-09-12T22:10:52.631Z,7.07
2023-09-12T22:13:18.972Z,6.75
2023-09-12T22:15:45.518Z,9.02
2023-09-12T22:18:12.015Z,7.18
2023-09-12T22:20:39.144Z,8.68
2023-09-12T22:23:05.571Z,7.35
2023-09-12T22:25:31.972Z,7.57
2023-09-12T22:27:58.421Z,9.95
2023-09-12T22:30:24.974Z,8.25
2023-09-12T22:32:51.302Z,5.05
2023-09-12T22:35:17.711Z,9.32
2023-09-12T22:37:44.080Z,6.72
2023-09-12T22:40:11.167Z,10.98
2023-09-12T22:42:38.023Z,10.27
2023-09-12T22:45:09.790Z,7.00
2023-09-12T22:47:36.200Z,7.28
2023-09-12T22:50:05.122Z,7.32
2023-09-12T22:52:31.510Z,10.68
2023-09-12T22:54:57.997Z,6.93
2023-09-12T22:57:24.377Z,7.50
2023-09-12T22:59:50.867Z,7.57
2023-09-12T23:02:17.244Z,10.32
2023-09-12T23:04:43.645Z,8.10
2023-09-12T23:07:10.044Z,9.20
2023-09-12T23:09:36.507Z,10.48
2023-09-12T23:12:03.088Z,7.07
2023-09-12T23:14:29.466Z,7.25
2023-09-12T23:16:55.860Z,8.43
2023-09-12T23:19:22.271Z,8.40
2023-09-12T23:21:48.690Z,6.65
2023-09-12T23:24:15.035Z,6.00
2023-09-12T23:26:41.445Z,8.73
2023-09-12T23:29:07.800Z,14.85
2023-09-12T23:31:34.249Z,8.07
2023-09-12T23:34:00.796Z,8.85
2023-09-12T23:36:27.385Z,9.98
2023-09-12T23:38:53.741Z,13.73
2023-09-12T23:41:20.138Z,7.75
2023-09-12T23:43:46.781Z,6.38
2023-09-12T23:46:13.329Z,6.85
2023-09-12T23:48:39.817Z,8.13
2023-09-12T23:51:06.257Z,9.07
2023-09-12T23:53:32.642Z,8.02
2023-09-12T23:56:00.693Z,8.35
